Webster, New Hampshire
Current Conditions -  °F | °C
As of 4:51 AM on Monday 26 Jan 2015 (Local Time) from KCON Reporting Station
Clear Clear  
Wind Chill: -3°   Ceiling: Unl
Heat Index:   Visibility: 10mi
Dew Point: -6°   Wind: 5mph
Humidity: 58%   Direction: 340°NNW
Pressure: 30.1"   Gusts: NA
Location:  43.3208°N, 71.6638°W
Report Text: KCON 260951Z AUTO 34004KT 10SM CLR M14/M21 A3010 RMK AO2 SLP200 T11441211
Loading
Personal Weather Stations






























Interactive Weather Map New forecast layout! Learn more

10-Day Weather Forecast

Advertisements
Track Severe Weather on mobile